sensor_id;sensor_type;location;lat;lon;timestamp;pressure;altitude;pressure_sealevel;temperature;humidity
57606;BME280;43430;48.204;11.556;2023-05-07T00:01:15;96059.75;;;11.79;100.00
57606;BME280;43430;48.204;11.556;2023-05-07T00:03:40;96053.59;;;11.85;100.00
57606;BME280;43430;48.204;11.556;2023-05-07T00:06:05;96048.91;;;11.87;100.00
57606;BME280;43430;48.204;11.556;2023-05-07T00:08:31;96053.59;;;11.85;100.00
57606;BME280;43430;48.204;11.556;2023-05-07T00:10:56;96049.91;;;11.86;100.00
57606;BME280;43430;48.204;11.556;2023-05-07T00:13:22;96047.63;;;11.90;100.00
57606;BME280;43430;48.204;11.556;2023-05-07T00:15:47;96051.19;;;11.84;100.00
57606;BME280;43430;48.204;11.556;2023-05-07T00:18:12;96051.25;;;11.77;100.00
57606;BME280;43430;48.204;11.556;2023-05-07T00:20:38;96058.13;;;11.67;100.00
57606;BME280;43430;48.204;11.556;2023-05-07T00:23:03;96053.75;;;11.60;100.00
57606;BME280;43430;48.204;11.556;2023-05-07T00:25:28;96048.56;;;11.65;100.00
57606;BME280;43430;48.204;11.556;2023-05-07T00:27:54;96053.41;;;11.69;100.00
57606;BME280;43430;48.204;11.556;2023-05-07T00:30:19;96049.53;;;11.71;100.00
57606;BME280;43430;48.204;11.556;2023-05-07T00:32:45;96050.56;;;11.70;100.00
57606;BME280;43430;48.204;11.556;2023-05-07T00:35:10;96036.31;;;11.71;100.00
57606;BME280;43430;48.204;11.556;2023-05-07T00:37:36;96030.22;;;11.71;100.00
57606;BME280;43430;48.204;11.556;2023-05-07T00:40:01;96029.97;;;11.72;100.00
57606;BME280;43430;48.204;11.556;2023-05-07T00:42:29;96034.91;;;11.69;100.00
57606;BME280;43430;48.204;11.556;2023-05-07T00:44:57;96032.72;;;11.65;100.00
57606;BME280;43430;48.204;11.556;2023-05-07T00:47:23;96040.09;;;11.63;100.00
57606;BME280;43430;48.204;11.556;2023-05-07T00:49:49;96040.53;;;11.60;100.00
57606;BME280;43430;48.204;11.556;2023-05-07T00:52:16;96037.09;;;11.60;100.00
57606;BME280;43430;48.204;11.556;2023-05-07T00:54:42;96051.19;;;11.54;100.00
57606;BME280;43430;48.204;11.556;2023-05-07T00:57:10;96044.63;;;11.45;100.00
57606;BME280;43430;48.204;11.556;2023-05-07T00:59:36;96047.78;;;11.35;100.00
57606;BME280;43430;48.204;11.556;2023-05-07T01:02:02;96049.06;;;11.32;100.00
57606;BME280;43430;48.204;11.556;2023-05-07T01:04:27;96047.44;;;11.31;100.00
57606;BME280;43430;48.204;11.556;2023-05-07T01:06:55;96053.31;;;11.33;100.00
57606;BME280;43430;48.204;11.556;2023-05-07T01:09:22;96049.34;;;11.43;100.00
57606;BME280;43430;48.204;11.556;2023-05-07T01:11:49;96051.06;;;11.49;100.00
57606;BME280;43430;48.204;11.556;2023-05-07T01:14:16;96051.06;;;11.49;100.00
57606;BME280;43430;48.204;11.556;2023-05-07T01:16:41;96040.84;;;11.52;100.00
57606;BME280;43430;48.204;11.556;2023-05-07T01:19:08;96044.31;;;11.53;100.00
57606;BME280;43430;48.204;11.556;2023-05-07T01:21:37;96043.47;;;11.52;100.00
57606;BME280;43430;48.204;11.556;2023-05-07T01:24:04;96046.38;;;11.51;100.00
57606;BME280;43430;48.204;11.556;2023-05-07T01:26:30;96041.88;;;11.51;100.00
57606;BME280;43430;48.204;11.556;2023-05-07T01:28:55;96045.78;;;11.49;100.00
57606;BME280;43430;48.204;11.556;2023-05-07T01:31:22;96047.06;;;11.46;100.00
57606;BME280;43430;48.204;11.556;2023-05-07T01:33:49;96037.84;;;11.49;100.00
57606;BME280;43430;48.204;11.556;2023-05-07T01:36:18;96033.75;;;11.53;100.00
57606;BME280;43430;48.204;11.556;2023-05-07T01:38:45;96036.97;;;11.55;100.00
57606;BME280;43430;48.204;11.556;2023-05-07T01:41:11;96031.81;;;11.60;100.00
57606;BME280;43430;48.204;11.556;2023-05-07T01:43:37;96025.50;;;11.61;100.00
57606;BME280;43430;48.204;11.556;2023-05-07T01:46:02;96023.31;;;11.58;100.00
57606;BME280;43430;48.204;11.556;2023-05-07T01:48:28;96029.19;;;11.60;100.00
57606;BME280;43430;48.204;11.556;2023-05-07T01:50:55;96027.44;;;11.54;100.00
57606;BME280;43430;48.204;11.556;2023-05-07T01:53:20;96035.66;;;11.46;100.00
57606;BME280;43430;48.204;11.556;2023-05-07T01:55:45;96025.34;;;11.44;100.00
57606;BME280;43430;48.204;11.556;2023-05-07T01:58:11;96032.56;;;11.49;100.00
57606;BME280;43430;48.204;11.556;2023-05-07T02:00:36;96028.47;;;11.53;100.00
57606;BME280;43430;48.204;11.556;2023-05-07T02:03:02;96026.41;;;11.55;100.00
57606;BME280;43430;48.204;11.556;2023-05-07T02:05:27;96029.63;;;11.57;100.00
57606;BME280;43430;48.204;11.556;2023-05-07T02:07:52;96043.75;;;11.62;100.00
57606;BME280;43430;48.204;11.556;2023-05-07T02:10:18;96032.25;;;11.57;100.00
57606;BME280;43430;48.204;11.556;2023-05-07T02:12:43;96038.88;;;11.48;100.00
57606;BME280;43430;48.204;11.556;2023-05-07T02:15:09;96039.06;;;11.34;100.00
57606;BME280;43430;48.204;11.556;2023-05-07T02:17:38;96040.38;;;11.44;100.00
57606;BME280;43430;48.204;11.556;2023-05-07T02:20:04;96032.13;;;11.52;100.00
57606;BME280;43430;48.204;11.556;2023-05-07T02:22:30;96038.00;;;11.54;100.00
57606;BME280;43430;48.204;11.556;2023-05-07T02:24:55;96037.19;;;11.53;100.00
57606;BME280;43430;48.204;11.556;2023-05-07T02:27:20;96038.09;;;11.47;100.00
57606;BME280;43430;48.204;11.556;2023-05-07T02:29:46;96036.00;;;11.37;100.00
57606;BME280;43430;48.204;11.556;2023-05-07T02:32:11;96046.19;;;11.34;100.00
57606;BME280;43430;48.204;11.556;2023-05-07T02:34:36;96042.75;;;11.33;100.00
57606;BME280;43430;48.204;11.556;2023-05-07T02:37:02;96040.53;;;11.19;100.00
57606;BME280;43430;48.204;11.556;2023-05-07T02:39:27;96041.09;;;11.21;100.00
57606;BME280;43430;48.204;11.556;2023-05-07T02:41:53;96042.50;;;11.23;100.00
57606;BME280;43430;48.204;11.556;2023-05-07T02:44:18;96035.53;;;11.29;100.00
57606;BME280;43430;48.204;11.556;2023-05-07T02:46:44;96035.72;;;11.27;100.00
57606;BME280;43430;48.204;11.556;2023-05-07T02:49:09;96036.75;;;11.26;100.00
57606;BME280;43430;48.204;11.556;2023-05-07T02:51:34;96046.16;;;11.22;100.00
57606;BME280;43430;48.204;11.556;2023-05-07T02:54:00;96043.38;;;11.17;100.00
57606;BME280;43430;48.204;11.556;2023-05-07T02:56:26;96043.09;;;11.25;100.00
57606;BME280;43430;48.204;11.556;2023-05-07T02:58:51;96038.16;;;11.29;100.00
57606;BME280;43430;48.204;11.556;2023-05-07T03:01:17;96043.66;;;11.27;100.00
57606;BME280;43430;48.204;11.556;2023-05-07T03:03:42;96042.25;;;11.25;100.00
57606;BME280;43430;48.204;11.556;2023-05-07T03:06:07;96040.44;;;11.25;100.00
57606;BME280;43430;48.204;11.556;2023-05-07T03:08:33;96039.41;;;11.26;100.00
57606;BME280;43430;48.204;11.556;2023-05-07T03:10:58;96033.31;;;11.26;100.00
57606;BME280;43430;48.204;11.556;2023-05-07T03:13:24;96031.69;;;11.25;100.00
57606;BME280;43430;48.204;11.556;2023-05-07T03:15:49;96031.78;;;11.18;100.00
57606;BME280;43430;48.204;11.556;2023-05-07T03:18:14;96036.84;;;11.20;100.00
57606;BME280;43430;48.204;11.556;2023-05-07T03:20:40;96041.88;;;11.21;100.00
57606;BME280;43430;48.204;11.556;2023-05-07T03:23:05;96030.53;;;11.21;100.00
57606;BME280;43430;48.204;11.556;2023-05-07T03:25:31;96035.91;;;11.14;100.00
57606;BME280;43430;48.204;11.556;2023-05-07T03:27:56;96034.66;;;11.16;100.00
57606;BME280;43430;48.204;11.556;2023-05-07T03:30:22;96032.09;;;11.10;100.00
57606;BME280;43430;48.204;11.556;2023-05-07T03:32:47;96029.47;;;11.10;100.00
57606;BME280;43430;48.204;11.556;2023-05-07T03:35:13;96023.38;;;11.09;100.00
57606;BME280;43430;48.204;11.556;2023-05-07T03:37:39;96020.94;;;11.08;100.00
57606;BME280;43430;48.204;11.556;2023-05-07T03:40:05;96029.91;;;11.07;100.00
57606;BME280;43430;48.204;11.556;2023-05-07T03:42:31;96034.16;;;11.08;100.00
57606;BME280;43430;48.204;11.556;2023-05-07T03:44:56;96033.59;;;11.06;100.00
57606;BME280;43430;48.204;11.556;2023-05-07T03:47:21;96035.63;;;11.04;100.00
57606;BME280;43430;48.204;11.556;2023-05-07T03:49:47;96025.75;;;10.99;100.00
57606;BME280;43430;48.204;11.556;2023-05-07T03:52:14;96037.78;;;10.95;100.00
57606;BME280;43430;48.204;11.556;2023-05-07T03:54:39;96043.88;;;10.77;100.00
57606;BME280;43430;48.204;11.556;2023-05-07T03:57:05;96040.34;;;10.83;100.00
57606;BME280;43430;48.204;11.556;2023-05-07T03:59:30;96039.25;;;10.91;100.00
57606;BME280;43430;48.204;11.556;2023-05-07T04:01:55;96039.03;;;10.92;100.00
57606;BME280;43430;48.204;11.556;2023-05-07T04:04:21;96037.78;;;10.95;100.00
57606;BME280;43430;48.204;11.556;2023-05-07T04:06:46;96041.34;;;11.01;100.00
57606;BME280;43430;48.204;11.556;2023-05-07T04:09:12;96048.47;;;11.00;100.00
57606;BME280;43430;48.204;11.556;2023-05-07T04:11:37;96044.34;;;11.04;100.00
57606;BME280;43430;48.204;11.556;2023-05-07T04:14:05;96046.50;;;10.96;100.00
57606;BME280;43430;48.204;11.556;2023-05-07T04:16:30;96047.28;;;10.96;100.00
57606;BME280;43430;48.204;11.556;2023-05-07T04:18:55;96061.28;;;10.97;100.00
57606;BME280;43430;48.204;11.556;2023-05-07T04:21:21;96063.72;;;10.98;100.00
57606;BME280;43430;48.204;11.556;2023-05-07T04:23:47;96061.00;;;11.05;100.00
57606;BME280;43430;48.204;11.556;2023-05-07T04:26:13;96056.88;;;11.09;100.00
57606;BME280;43430;48.204;11.556;2023-05-07T04:28:39;96058.72;;;11.08;100.00
57606;BME280;43430;48.204;11.556;2023-05-07T04:31:05;96061.72;;;11.12;100.00
57606;BME280;43430;48.204;11.556;2023-05-07T04:33:31;96064.38;;;11.12;100.00
57606;BME280;43430;48.204;11.556;2023-05-07T04:35:57;96060.81;;;11.18;100.00
57606;BME280;43430;48.204;11.556;2023-05-07T04:38:22;96069.31;;;11.20;100.00
57606;BME280;43430;48.204;11.556;2023-05-07T04:40:49;96062.66;;;11.17;100.00
57606;BME280;43430;48.204;11.556;2023-05-07T04:43:14;96064.63;;;11.22;100.00
57606;BME280;43430;48.204;11.556;2023-05-07T04:45:41;96062.53;;;11.43;100.00
57606;BME280;43430;48.204;11.556;2023-05-07T04:48:08;96052.16;;;11.71;100.00
57606;BME280;43430;48.204;11.556;2023-05-07T04:50:34;96046.50;;;11.98;100.00
57606;BME280;43430;48.204;11.556;2023-05-07T04:52:59;96039.03;;;12.30;100.00
57606;BME280;43430;48.204;11.556;2023-05-07T04:55:25;96027.94;;;12.68;100.00
57606;BME280;43430;48.204;11.556;2023-05-07T04:57:51;96016.16;;;12.88;100.00
57606;BME280;43430;48.204;11.556;2023-05-07T05:00:17;96012.91;;;12.97;100.00
57606;BME280;43430;48.204;11.556;2023-05-07T05:02:45;96000.53;;;13.15;100.00
57606;BME280;43430;48.204;11.556;2023-05-07T05:05:10;95995.44;;;13.25;100.00
57606;BME280;43430;48.204;11.556;2023-05-07T05:07:36;95999.31;;;13.34;100.00
57606;BME280;43430;48.204;11.556;2023-05-07T05:10:02;96002.84;;;13.40;100.00
57606;BME280;43430;48.204;11.556;2023-05-07T05:12:29;96001.97;;;13.51;100.00
57606;BME280;43430;48.204;11.556;2023-05-07T05:14:54;96004.06;;;13.66;100.00
57606;BME280;43430;48.204;11.556;2023-05-07T05:17:20;95994.38;;;13.71;100.00
57606;BME280;43430;48.204;11.556;2023-05-07T05:19:45;95997.59;;;13.73;100.00
57606;BME280;43430;48.204;11.556;2023-05-07T05:22:10;95996.59;;;13.80;100.00
57606;BME280;43430;48.204;11.556;2023-05-07T05:24:36;95993.63;;;13.93;100.00
57606;BME280;43430;48.204;11.556;2023-05-07T05:27:01;95989.78;;;14.00;100.00
57606;BME280;43430;48.204;11.556;2023-05-07T05:29:27;95987.34;;;14.16;100.00
57606;BME280;43430;48.204;11.556;2023-05-07T05:31:52;95985.00;;;14.19;100.00
57606;BME280;43430;48.204;11.556;2023-05-07T05:34:17;95980.81;;;14.23;100.00
57606;BME280;43430;48.204;11.556;2023-05-07T05:36:44;95983.88;;;14.32;100.00
57606;BME280;43430;48.204;11.556;2023-05-07T05:39:10;95980.16;;;14.50;100.00
57606;BME280;43430;48.204;11.556;2023-05-07T05:41:35;95981.16;;;14.66;100.00
57606;BME280;43430;48.204;11.556;2023-05-07T05:44:01;95976.31;;;14.85;100.00
57606;BME280;43430;48.204;11.556;2023-05-07T05:46:26;95968.09;;;14.86;100.00
57606;BME280;43430;48.204;11.556;2023-05-07T05:48:51;95964.66;;;14.86;100.00
57606;BME280;43430;48.204;11.556;2023-05-07T05:51:17;95978.47;;;14.88;100.00
57606;BME280;43430;48.204;11.556;2023-05-07T05:53:42;95972.34;;;15.09;100.00
57606;BME280;43430;48.204;11.556;2023-05-07T05:56:07;95969.09;;;15.29;100.00
57606;BME280;43430;48.204;11.556;2023-05-07T05:58:33;95962.06;;;15.45;100.00
57606;BME280;43430;48.204;11.556;2023-05-07T06:00:58;95957.16;;;15.64;100.00
57606;BME280;43430;48.204;11.556;2023-05-07T06:03:24;95953.31;;;15.77;100.00
57606;BME280;43430;48.204;11.556;2023-05-07T06:05:49;95950.16;;;15.85;100.00
57606;BME280;43430;48.204;11.556;2023-05-07T06:08:15;95951.00;;;15.90;100.00
57606;BME280;43430;48.204;11.556;2023-05-07T06:10:40;95951.91;;;16.06;100.00
57606;BME280;43430;48.204;11.556;2023-05-07T06:13:07;95939.22;;;16.19;100.00
57606;BME280;43430;48.204;11.556;2023-05-07T06:15:32;95945.63;;;16.23;100.00
57606;BME280;43430;48.204;11.556;2023-05-07T06:17:58;95947.47;;;16.22;100.00
57606;BME280;43430;48.204;11.556;2023-05-07T06:20:23;95949.81;;;16.13;100.00
57606;BME280;43430;48.204;11.556;2023-05-07T06:22:49;95947.44;;;16.17;100.00
57606;BME280;43430;48.204;11.556;2023-05-07T06:25:14;95959.75;;;16.28;100.00
57606;BME280;43430;48.204;11.556;2023-05-07T06:27:39;95954.22;;;16.35;100.00
57606;BME280;43430;48.204;11.556;2023-05-07T06:30:06;95952.34;;;16.41;100.00
57606;BME280;43430;48.204;11.556;2023-05-07T06:32:31;95948.16;;;16.50;100.00
57606;BME280;43430;48.204;11.556;2023-05-07T06:34:57;95945.78;;;16.53;100.00
57606;BME280;43430;48.204;11.556;2023-05-07T06:37:22;95946.09;;;16.67;100.00
57606;BME280;43430;48.204;11.556;2023-05-07T06:39:47;95947.78;;;16.89;100.00
57606;BME280;43430;48.204;11.556;2023-05-07T06:42:13;95942.19;;;16.85;100.00
57606;BME280;43430;48.204;11.556;2023-05-07T06:44:38;95946.75;;;16.90;100.00
57606;BME280;43430;48.204;11.556;2023-05-07T06:47:03;95942.22;;;16.95;100.00
57606;BME280;43430;48.204;11.556;2023-05-07T06:49:30;95948.06;;;16.92;100.00
57606;BME280;43430;48.204;11.556;2023-05-07T06:51:56;95948.84;;;16.93;100.00
57606;BME280;43430;48.204;11.556;2023-05-07T06:54:22;95946.75;;;17.05;100.00
57606;BME280;43430;48.204;11.556;2023-05-07T06:56:47;95948.66;;;17.15;100.00
57606;BME280;43430;48.204;11.556;2023-05-07T06:59:13;95944.38;;;17.03;100.00
57606;BME280;43430;48.204;11.556;2023-05-07T07:01:38;95950.97;;;16.85;100.00
57606;BME280;43430;48.204;11.556;2023-05-07T07:04:03;95950.75;;;16.97;100.00
57606;BME280;43430;48.204;11.556;2023-05-07T07:06:29;95949.94;;;16.97;100.00
57606;BME280;43430;48.204;11.556;2023-05-07T07:08:56;95955.81;;;17.09;100.00
57606;BME280;43430;48.204;11.556;2023-05-07T07:11:22;95953.72;;;17.21;100.00
57606;BME280;43430;48.204;11.556;2023-05-07T07:13:47;95947.59;;;17.26;100.00
57606;BME280;43430;48.204;11.556;2023-05-07T07:16:12;95951.63;;;17.39;100.00
57606;BME280;43430;48.204;11.556;2023-05-07T07:18:38;95952.94;;;17.36;100.00
57606;BME280;43430;48.204;11.556;2023-05-07T07:21:03;95950.81;;;17.38;100.00
57606;BME280;43430;48.204;11.556;2023-05-07T07:23:29;95943.06;;;17.26;100.00
57606;BME280;43430;48.204;11.556;2023-05-07T07:25:54;95955.06;;;17.14;100.00
57606;BME280;43430;48.204;11.556;2023-05-07T07:28:21;95954.00;;;17.30;100.00
57606;BME280;43430;48.204;11.556;2023-05-07T07:30:46;95947.59;;;17.26;100.00
57606;BME280;43430;48.204;11.556;2023-05-07T07:33:11;95943.81;;;17.06;100.00
57606;BME280;43430;48.204;11.556;2023-05-07T07:35:37;95950.78;;;17.07;100.00
57606;BME280;43430;48.204;11.556;2023-05-07T07:38:02;95958.75;;;17.13;100.00
57606;BME280;43430;48.204;11.556;2023-05-07T07:40:28;95951.06;;;17.26;100.00
57606;BME280;43430;48.204;11.556;2023-05-07T07:42:53;95956.69;;;17.35;100.00
57606;BME280;43430;48.204;11.556;2023-05-07T07:45:19;95960.97;;;17.41;100.00
57606;BME280;43430;48.204;11.556;2023-05-07T07:47:45;95960.94;;;17.46;100.00
57606;BME280;43430;48.204;11.556;2023-05-07T07:50:10;95957.50;;;17.66;100.00
57606;BME280;43430;48.204;11.556;2023-05-07T07:52:35;95964.41;;;17.57;100.00
57606;BME280;43430;48.204;11.556;2023-05-07T07:55:01;95966.56;;;17.70;100.00
57606;BME280;43430;48.204;11.556;2023-05-07T07:57:27;95956.72;;;17.81;100.00
57606;BME280;43430;48.204;11.556;2023-05-07T07:59:52;95960.97;;;17.82;100.00
57606;BME280;43430;48.204;11.556;2023-05-07T08:02:17;95948.72;;;17.81;100.00
57606;BME280;43430;48.204;11.556;2023-05-07T08:04:43;95956.47;;;17.93;100.00
57606;BME280;43430;48.204;11.556;2023-05-07T08:07:09;95954.59;;;17.93;100.00
57606;BME280;43430;48.204;11.556;2023-05-07T08:09:35;95952.97;;;17.97;100.00
57606;BME280;43430;48.204;11.556;2023-05-07T08:12:01;95951.63;;;17.95;100.00
57606;BME280;43430;48.204;11.556;2023-05-07T08:14:26;95963.38;;;18.04;100.00
57606;BME280;43430;48.204;11.556;2023-05-07T08:16:53;95962.84;;;18.07;100.00
57606;BME280;43430;48.204;11.556;2023-05-07T08:19:19;95954.06;;;17.96;100.00
57606;BME280;43430;48.204;11.556;2023-05-07T08:21:45;95957.25;;;17.93;100.00
57606;BME280;43430;48.204;11.556;2023-05-07T08:24:12;95964.72;;;17.86;100.00
57606;BME280;43430;48.204;11.556;2023-05-07T08:26:38;95960.97;;;17.92;100.00
57606;BME280;43430;48.204;11.556;2023-05-07T08:29:04;95963.38;;;18.14;100.00
57606;BME280;43430;48.204;11.556;2023-05-07T08:31:29;95952.66;;;18.19;100.00
57606;BME280;43430;48.204;11.556;2023-05-07T08:33:56;95956.06;;;18.40;100.00
57606;BME280;43430;48.204;11.556;2023-05-07T08:36:21;95950.97;;;18.54;100.00
57606;BME280;43430;48.204;11.556;2023-05-07T08:38:46;95951.81;;;18.44;100.00
57606;BME280;43430;48.204;11.556;2023-05-07T08:41:12;95941.41;;;18.48;100.00
57606;BME280;43430;48.204;11.556;2023-05-07T08:43:39;95945.94;;;18.42;100.00
57606;BME280;43430;48.204;11.556;2023-05-07T08:46:08;95950.72;;;18.56;100.00
57606;BME280;43430;48.204;11.556;2023-05-07T08:48:35;95938.41;;;18.60;100.00
57606;BME280;43430;48.204;11.556;2023-05-07T08:51:01;95938.63;;;18.73;100.00
57606;BME280;43430;48.204;11.556;2023-05-07T08:53:26;95950.41;;;18.72;100.00
57606;BME280;43430;48.204;11.556;2023-05-07T08:55:52;95942.63;;;18.71;100.00
57606;BME280;43430;48.204;11.556;2023-05-07T08:58:18;95945.81;;;18.78;100.00
57606;BME280;43430;48.204;11.556;2023-05-07T09:00:43;95945.03;;;18.78;100.00
57606;BME280;43430;48.204;11.556;2023-05-07T09:03:09;95946.06;;;18.82;100.00
57606;BME280;43430;48.204;11.556;2023-05-07T09:05:37;95941.50;;;18.87;100.00
57606;BME280;43430;48.204;11.556;2023-05-07T09:08:05;95948.22;;;18.80;100.00
57606;BME280;43430;48.204;11.556;2023-05-07T09:10:33;95939.63;;;18.88;100.00
57606;BME280;43430;48.204;11.556;2023-05-07T09:12:58;95935.78;;;19.09;100.00
57606;BME280;43430;48.204;11.556;2023-05-07T09:15:24;95938.69;;;19.13;100.00
57606;BME280;43430;48.204;11.556;2023-05-07T09:17:50;95937.16;;;19.07;100.00
57606;BME280;43430;48.204;11.556;2023-05-07T09:20:15;95934.47;;;19.02;100.00
57606;BME280;43430;48.204;11.556;2023-05-07T09:22:41;95933.09;;;19.14;100.00
57606;BME280;43430;48.204;11.556;2023-05-07T09:25:07;95935.88;;;19.33;100.00
57606;BME280;43430;48.204;11.556;2023-05-07T09:27:33;95922.91;;;19.56;100.00
57606;BME280;43430;48.204;11.556;2023-05-07T09:29:58;95919.38;;;19.60;100.00
57606;BME280;43430;48.204;11.556;2023-05-07T09:32:24;95930.38;;;19.59;100.00
57606;BME280;43430;48.204;11.556;2023-05-07T09:34:50;95927.72;;;19.54;100.00
57606;BME280;43430;48.204;11.556;2023-05-07T09:37:15;95925.59;;;19.51;100.00
57606;BME280;43430;48.204;11.556;2023-05-07T09:39:46;95922.13;;;19.50;100.00
57606;BME280;43430;48.204;11.556;2023-05-07T09:42:12;95921.88;;;19.52;100.00
57606;BME280;43430;48.204;11.556;2023-05-07T09:44:40;95927.94;;;19.57;100.00
57606;BME280;43430;48.204;11.556;2023-05-07T09:47:06;95922.84;;;19.61;100.00
57606;BME280;43430;48.204;11.556;2023-05-07T09:49:36;95924.47;;;19.57;100.00
57606;BME280;43430;48.204;11.556;2023-05-07T09:52:04;95916.69;;;19.60;100.00
57606;BME280;43430;48.204;11.556;2023-05-07T09:54:32;95914.06;;;19.55;100.00
57606;BME280;43430;48.204;11.556;2023-05-07T09:57:00;95913.97;;;19.71;100.00
57606;BME280;43430;48.204;11.556;2023-05-07T09:59:28;95911.88;;;19.97;100.00
57606;BME280;43430;48.204;11.556;2023-05-07T10:01:56;95912.38;;;19.99;100.00
57606;BME280;43430;48.204;11.556;2023-05-07T10:04:22;95909.22;;;19.91;100.00
57606;BME280;43430;48.204;11.556;2023-05-07T10:06:48;95911.25;;;20.05;100.00
57606;BME280;43430;48.204;11.556;2023-05-07T10:09:14;95912.66;;;19.97;100.00
57606;BME280;43430;48.204;11.556;2023-05-07T10:11:40;95908.16;;;19.92;100.00
57606;BME280;43430;48.204;11.556;2023-05-07T10:14:07;95909.00;;;19.88;100.00
57606;BME280;43430;48.204;11.556;2023-05-07T10:16:34;95911.31;;;20.00;100.00
57606;BME280;43430;48.204;11.556;2023-05-07T10:19:05;95910.97;;;20.06;100.00
57606;BME280;43430;48.204;11.556;2023-05-07T10:21:31;95904.44;;;20.18;100.00
57606;BME280;43430;48.204;11.556;2023-05-07T10:24:05;95910.03;;;20.16;100.00
57606;BME280;43430;48.204;11.556;2023-05-07T10:26:32;95901.41;;;20.00;100.00
57606;BME280;43430;48.204;11.556;2023-05-07T10:29:48;95909.34;;;20.05;100.00
57606;BME280;43430;48.204;11.556;2023-05-07T10:32:32;95912.16;;;20.19;100.00
57606;BME280;43430;48.204;11.556;2023-05-07T10:34:56;95913.47;;;20.22;100.00
57606;BME280;43430;48.204;11.556;2023-05-07T10:37:24;95910.03;;;20.16;100.00
57606;BME280;43430;48.204;11.556;2023-05-07T10:39:51;95908.59;;;20.29;100.00
57606;BME280;43430;48.204;11.556;2023-05-07T10:42:16;95898.19;;;20.46;100.00
57606;BME280;43430;48.204;11.556;2023-05-07T10:44:42;95908.19;;;20.41;100.00
57606;BME280;43430;48.204;11.556;2023-05-07T10:47:12;95913.91;;;20.34;100.00
57606;BME280;43430;48.204;11.556;2023-05-07T10:52:15;95911.94;;;20.15;100.00
57606;BME280;43430;48.204;11.556;2023-05-07T10:54:42;95917.03;;;20.17;100.00
57606;BME280;43430;48.204;11.556;2023-05-07T10:59:56;95920.28;;;20.09;100.00
57606;BME280;43430;48.204;11.556;2023-05-07T11:02:21;95920.47;;;19.94;100.00
57606;BME280;43430;48.204;11.556;2023-05-07T11:05:22;95917.03;;;19.88;100.00
57606;BME280;43430;48.204;11.556;2023-05-07T11:07:55;95904.91;;;19.96;100.00
57606;BME280;43430;48.204;11.556;2023-05-07T11:10:20;95915.50;;;20.06;100.00
57606;BME280;43430;48.204;11.556;2023-05-07T11:12:47;95906.56;;;20.15;100.00
57606;BME280;43430;48.204;11.556;2023-05-07T11:15:14;95907.94;;;20.13;100.00
57606;BME280;43430;48.204;11.556;2023-05-07T11:17:58;95908.00;;;20.08;100.00
57606;BME280;43430;48.204;11.556;2023-05-07T11:28:28;95907.06;;;19.94;100.00
57606;BME280;43430;48.204;11.556;2023-05-07T11:30:53;95908.47;;;20.15;100.00
57606;BME280;43430;48.204;11.556;2023-05-07T11:33:19;95906.66;;;20.34;100.00
57606;BME280;43430;48.204;11.556;2023-05-07T11:35:45;95895.25;;;20.48;100.00
57606;BME280;43430;48.204;11.556;2023-05-07T11:38:11;95891.88;;;20.61;100.00
57606;BME280;43430;48.204;11.556;2023-05-07T11:40:54;95893.06;;;20.50;100.00
57606;BME280;43430;48.204;11.556;2023-05-07T11:43:20;95888.06;;;20.43;100.00
57606;BME280;43430;48.204;11.556;2023-05-07T11:45:46;95891.09;;;20.60;100.00
57606;BME280;43430;48.204;11.556;2023-05-07T11:48:16;95886.81;;;20.59;100.00
57606;BME280;43430;48.204;11.556;2023-05-07T11:50:54;95888.13;;;20.62;100.00
57606;BME280;43430;48.204;11.556;2023-05-07T11:53:25;95883.44;;;20.73;100.00
57606;BME280;43430;48.204;11.556;2023-05-07T11:55:56;95874.25;;;20.98;100.00
57606;BME280;43430;48.204;11.556;2023-05-07T11:58:23;95882.34;;;21.12;100.00
57606;BME280;43430;48.204;11.556;2023-05-07T12:00:53;95880.69;;;21.16;100.00
57606;BME280;43430;48.204;11.556;2023-05-07T12:03:19;95882.06;;;21.13;100.00
57606;BME280;43430;48.204;11.556;2023-05-07T12:05:46;95884.47;;;21.15;100.00
57606;BME280;43430;48.204;11.556;2023-05-07T12:08:15;95878.72;;;21.02;100.00
57606;BME280;43430;48.204;11.556;2023-05-07T12:10:44;95879.03;;;21.01;100.00
57606;BME280;43430;48.204;11.556;2023-05-07T12:13:14;95874.66;;;21.05;100.00
57606;BME280;43430;48.204;11.556;2023-05-07T12:15:41;95869.38;;;21.19;100.00
57606;BME280;43430;48.204;11.556;2023-05-07T12:18:06;95880.72;;;21.35;100.00
57606;BME280;43430;48.204;11.556;2023-05-07T12:20:34;95869.88;;;21.40;100.00
57606;BME280;43430;48.204;11.556;2023-05-07T12:22:59;95867.06;;;21.31;100.00
57606;BME280;43430;48.204;11.556;2023-05-07T12:25:25;95869.19;;;21.34;98.35
57606;BME280;43430;48.204;11.556;2023-05-07T12:27:53;95872.06;;;21.38;99.54
57606;BME280;43430;48.204;11.556;2023-05-07T12:30:18;95870.75;;;21.35;100.00
57606;BME280;43430;48.204;11.556;2023-05-07T12:32:45;95868.28;;;21.39;100.00
57606;BME280;43430;48.204;11.556;2023-05-07T12:35:10;95870.09;;;21.24;99.75
57606;BME280;43430;48.204;11.556;2023-05-07T12:37:36;95862.63;;;21.40;99.25
57606;BME280;43430;48.204;11.556;2023-05-07T12:40:09;95865.16;;;21.31;97.43
57606;BME280;43430;48.204;11.556;2023-05-07T12:42:40;95861.84;;;21.21;100.00
57606;BME280;43430;48.204;11.556;2023-05-07T12:45:12;95854.44;;;21.31;94.56
57606;BME280;43430;48.204;11.556;2023-05-07T12:47:38;95855.38;;;21.22;91.98
57606;BME280;43430;48.204;11.556;2023-05-07T12:50:07;95843.66;;;21.18;94.64